AirNav   TITAN Aviation Fuels
 
 1520 users online  

11MA Bulljump Airport
Wareham, Massachusetts, USA

GOING TO WAREHAM?


FAA INFORMATION EFFECTIVE 01 DECEMBER 2022

Location

FAA Identifier: 11MA
Lat/Long: 41-48-26.3710N 070-45-30.1320W
41-48.439517N 070-45.502200W
41.8073253,-70.7583700
(estimated)
Elevation: 60 ft. / 18 m (estimated)
Variation: 16W (1990)
From city: 4 miles NW of WAREHAM, MA
Time zone: UTC -5 (UTC -4 during Daylight Saving Time)
Zip code: 02576

Airport Operations

Airport use: Private use. Permission required prior to landing
Activation date: 12/1992
Control tower: no
ARTCC: BOSTON CENTER
FSS: BRIDGEPORT FLIGHT SERVICE STATION
Attendance: UNATNDD
Segmented circle: no

Airport Communications

WX ASOS at PYM (6 nm N): 135.625 (508-732-8358)
WX ASOS at EWB (12 nm SW): 126.85 (508-992-0195)
WX ASOS at TAN (12 nm W): 132.675 (508-824-5005)
WX AWOS-4 at FMH (14 nm SE): PHONE 508-968-6563
WX AWOS-3 at GHG (18 nm N): 120.0 (781-837-0555)

Nearby radio navigation aids

VOR radial/distance  VOR name  Freq  Var
MVYr000/25.5MARTHAS VINEYARD VOR/DME114.5015W
PVDr095/30.5PROVIDENCE VOR/DME115.6014W
LFVr265/34.6MARCONI VOR/DME114.7016W
BOSr179/34.6BOSTON VOR/DME112.7016W

 
NDB name  Hdg/Dist  Freq  Var  ID
PROVINCETOWN253/28.638916WPVC .--. ...- -.-.
NAUSET297/35.227916WCQX -.-. --.- -..-

Airport Services

Runway Information

Runway 4/22

Dimensions: 1200 x 42 ft. / 366 x 13 m
Surface: turf
RUNWAY 4  RUNWAY 22
Traffic pattern: leftleft

Airport Ownership and Management from official FAA records

Ownership: Privately-owned
Owner: PAUL E RINTA
34 NORTH CARVER ROAD
W. WAREHAM, MA 02506
Phone 508-295-3254
Manager: LINDA RINTA
34 NORTHCARVER ROAD
W. WAREHAM, MA 02506
Phone 508-295-3254

Airport Operational Statistics

Aircraft based on the field: 1
Single engine airplanes: 1
    

Additional Remarks

FOR CD CTC PROVIDENCE APCH AT 401-738-8945, WHEN APCH CLSD CTC BOSTON ARTCC AT 603-879-6859.

Instrument Procedures

There are no published instrument procedures at 11MA.

Some nearby airports with instrument procedures:

KPYM - Plymouth Municipal Airport (6 nm N)
KEWB - New Bedford Regional Airport (12 nm SW)
KTAN - Taunton Municipal Airport - King Field (12 nm W)
KFMH - Cape Cod Coast Guard Air Station (14 nm SE)
5B6 - Falmouth Airpark (17 nm SE)
KGHG - Marshfield Municipal Airport - George Harlow Field (18 nm N)
 
Loc | Ops | Rwys | IFR | FBO | Links
Com | Nav | Svcs | Stats | Notes
Area around 11MA (Bulljump Airport)
 
Road maps at: MapQuest Bing Google
 
Aerial photo
No photo
 
Sectional chart

 
Airport distance calculator
Flying to Bulljump Airport? Find the distance to fly.

From to 11MA

Sunrise and sunset
Times for 06-Dec-2022
 Local
(UTC-5)
 Zulu
(UTC)
Morning civil twilight06:2611:26
Sunrise06:5711:57
Sunset16:1121:11
Evening civil twilight16:4321:43

Current date and time
Zulu (UTC)  06-Dec-2022 18:48:13
Local (UTC-5)  06-Dec-2022 13:48:13
 
METAR
KPYM 
7nm N 
061752Z AUTO 14008KT 10SM FEW055 13/06 A3040 RMK AO2 SLP298 T01330056 10133 20078 55012
KEWB 
11nm SW 
061753Z 13012G18KT 10SM FEW055 13/08 A3039 RMK AO2 SLP289 T01330078 10133 20083 56015
KTAN 
12nm W 
061752Z AUTO A3039 RMK AO2 SLPNO 56014 PWINO FZRANO TSNO $
KFMH 
15nm SE 
061757Z 12012G22KT 10SM CLR 12/08 A3041
KGHG 
18nm N 
061835Z AUTO 14009G16KT 10SM 12/07 A3040 RMK AO2
TAF
KFMH 
15nm SE 
061729Z 0618/0718 13010G18KT P6SM BKN200 FM071000 12006KT 6SM -SHRA BR OVC035 FM071200 13006KT 5SM -SHRA BR OVC025 FM071400 14007KT 4SM BR VCSH OVC020 FM071700 16009KT 5SM -SHRA BR OVC020
NOTAMs
Click for the latest NOTAMs
NOTAMs are issued by the DoD/FAA and will open in a separate window not controlled by AirNav.

 

 
 

Would you like to see your business listed on this page?

 If your business provides an interesting product or service to pilots, flight crews, aircraft, or users of the Bulljump Airport, you should consider listing it here.  To start the listing process, click on the button below
 
Add a business
 

Other Pages about Bulljump Airport

Update a link
 
Copyright © AirNav, LLC. All rights reserved. Privacy Policy  Contact